createdAt,value
2019-06-20T00:03:25.247Z,19.80
2019-06-20T00:08:30.369Z,15.90
2019-06-20T00:13:35.449Z,15.90
2019-06-20T00:18:40.521Z,16.35
2019-06-20T00:23:45.713Z,17.02
2019-06-20T00:28:50.737Z,18.17
2019-06-20T00:33:55.820Z,21.40
2019-06-20T00:39:00.892Z,23.02
2019-06-20T00:44:07.683Z,26.15
2019-06-20T00:49:12.882Z,23.00
2019-06-20T00:54:18.920Z,23.00
2019-06-20T00:59:24.049Z,21.68
2019-06-20T01:04:30.256Z,17.67
2019-06-20T01:09:35.335Z,20.35
2019-06-20T01:14:41.051Z,17.35
2019-06-20T01:19:46.145Z,18.85
2019-06-20T01:24:51.203Z,19.30
2019-06-20T01:29:56.591Z,18.15
2019-06-20T01:35:01.741Z,18.57
2019-06-20T01:40:07.397Z,21.30
2019-06-20T01:45:12.402Z,20.50
2019-06-20T01:50:17.658Z,24.60
2019-06-20T01:55:23.086Z,17.52
2019-06-20T02:00:44.390Z,16.27
2019-06-20T02:05:49.461Z,17.40
2019-06-20T02:10:54.526Z,18.02
2019-06-20T02:15:59.613Z,17.82
2019-06-20T02:21:04.975Z,19.60
2019-06-20T02:26:10.145Z,18.10
2019-06-20T02:31:15.189Z,18.07
2019-06-20T02:36:20.297Z,14.73
2019-06-20T02:41:25.332Z,20.97
2019-06-20T02:46:30.726Z,22.05
2019-06-20T02:51:35.869Z,19.23
2019-06-20T02:56:40.922Z,19.62
2019-06-20T03:01:46.006Z,19.73
2019-06-20T03:06:51.110Z,18.30
2019-06-20T03:11:56.196Z,17.77
2019-06-20T03:17:01.350Z,18.40
2019-06-20T03:22:06.860Z,18.87
2019-06-20T03:27:11.903Z,18.92
2019-06-20T03:32:16.942Z,18.75
2019-06-20T03:37:22.034Z,30.57
2019-06-20T03:42:27.119Z,23.25
2019-06-20T03:47:32.643Z,20.45
2019-06-20T03:52:38.063Z,18.82
2019-06-20T03:57:43.199Z,20.17
2019-06-20T04:02:48.287Z,19.25
2019-06-20T04:07:53.339Z,17.92
2019-06-20T04:12:58.442Z,19.98
2019-06-20T04:18:03.695Z,20.40
2019-06-20T04:23:08.923Z,19.05
2019-06-20T04:28:14.007Z,22.62
2019-06-20T04:33:19.181Z,19.10
2019-06-20T04:38:25.181Z,19.82
2019-06-20T04:43:30.346Z,21.80
2019-06-20T04:48:36.007Z,18.98
2019-06-20T04:53:41.119Z,20.60
2019-06-20T04:58:46.567Z,21.42
2019-06-20T05:03:52.207Z,19.90
2019-06-20T05:08:57.543Z,20.88
2019-06-20T05:14:04.730Z,21.00
2019-06-20T05:19:10.345Z,21.82
2019-06-20T05:24:16.025Z,20.77
2019-06-20T05:29:22.697Z,19.75
2019-06-20T05:34:27.794Z,19.45
2019-06-20T05:39:32.996Z,20.68
2019-06-20T05:44:38.047Z,17.42
2019-06-20T05:49:43.881Z,13.85
2019-06-20T05:54:49.639Z,13.95
2019-06-20T05:59:54.699Z,14.40
2019-06-20T06:04:59.828Z,14.30
2019-06-20T06:10:05.979Z,14.80
2019-06-20T06:15:12.227Z,14.68
2019-06-20T06:20:17.643Z,14.10
2019-06-20T06:25:22.802Z,17.20
2019-06-20T06:30:29.101Z,16.57
2019-06-20T06:35:34.256Z,16.35
2019-06-20T06:40:39.558Z,14.70
2019-06-20T06:45:44.636Z,15.85
2019-06-20T06:50:49.788Z,13.85
2019-06-20T06:55:54.995Z,13.53
2019-06-20T07:01:01.173Z,14.35
2019-06-20T07:06:07.211Z,15.58
2019-06-20T07:11:12.329Z,14.40
2019-06-20T07:16:17.294Z,14.93
2019-06-20T07:21:22.613Z,15.43
2019-06-20T07:26:27.766Z,14.18
2019-06-20T07:31:32.960Z,14.40
2019-06-20T07:36:38.395Z,13.55
2019-06-20T07:41:43.538Z,13.10
2019-06-20T07:46:49.024Z,13.93
2019-06-20T07:51:54.086Z,13.85
2019-06-20T07:56:59.177Z,14.60
2019-06-20T08:02:04.274Z,14.40
2019-06-20T08:07:09.444Z,14.13
2019-06-20T08:12:14.670Z,16.52
2019-06-20T08:17:34.334Z,18.30
2019-06-20T08:22:26.611Z,16.12
2019-06-20T08:27:57.831Z,15.95
2019-06-20T08:33:09.921Z,15.53
2019-06-20T08:38:11.120Z,16.57
2019-06-20T08:43:16.189Z,15.80
2019-06-20T08:48:21.329Z,16.27
2019-06-20T08:53:26.482Z,16.55
2019-06-20T08:58:31.578Z,14.13
2019-06-20T09:03:36.683Z,12.90
2019-06-20T09:08:42.869Z,14.85
2019-06-20T09:13:49.043Z,13.80
2019-06-20T09:18:55.332Z,16.90
2019-06-20T09:24:01.878Z,16.23
2019-06-20T09:29:07.022Z,15.38
2019-06-20T09:34:12.083Z,15.55
2019-06-20T09:39:17.308Z,16.93
2019-06-20T09:44:22.598Z,15.10
2019-06-20T09:49:28.189Z,14.58
2019-06-20T09:54:33.364Z,14.50
2019-06-20T09:59:39.616Z,14.30
2019-06-20T10:04:46.083Z,14.50
2019-06-20T10:09:52.072Z,15.25
2019-06-20T10:14:57.384Z,14.40
2019-06-20T10:20:02.563Z,16.60
2019-06-20T10:25:07.767Z,17.87
2019-06-20T10:30:14.599Z,21.30
2019-06-20T10:35:20.401Z,16.85
2019-06-20T10:40:25.683Z,19.63
2019-06-20T10:45:30.797Z,20.05
2019-06-20T10:50:35.920Z,19.17
2019-06-20T10:55:41.988Z,19.53
2019-06-20T11:00:48.348Z,18.93
2019-06-20T11:05:53.466Z,17.05
2019-06-20T11:10:58.907Z,17.05
2019-06-20T11:16:04.205Z,19.27
2019-06-20T11:21:10.880Z,20.70
2019-06-20T11:26:16.475Z,19.67
2019-06-20T11:31:21.913Z,17.80
2019-06-20T11:36:27.003Z,17.20
2019-06-20T11:41:32.326Z,16.82
2019-06-20T11:46:38.547Z,19.23
2019-06-20T11:51:43.865Z,15.88
2019-06-20T11:56:48.975Z,17.60
2019-06-20T12:01:55.257Z,16.37
2019-06-20T12:07:01.227Z,18.65
2019-06-20T12:12:06.359Z,18.57
2019-06-20T12:17:11.579Z,17.75
2019-06-20T12:22:16.737Z,16.90
2019-06-20T12:27:21.945Z,18.57
2019-06-20T12:32:27.169Z,15.87
2019-06-20T12:37:32.920Z,17.25
2019-06-20T12:42:39.860Z,14.47
2019-06-20T12:47:46.091Z,17.47
2019-06-20T12:52:52.045Z,15.98
2019-06-20T12:57:57.229Z,15.00
2019-06-20T13:03:02.742Z,15.65
2019-06-20T13:08:07.810Z,18.45
2019-06-20T13:13:12.987Z,16.07
2019-06-20T13:18:18.109Z,15.93
2019-06-20T13:23:23.286Z,16.93
2019-06-20T13:28:28.736Z,17.00
2019-06-20T13:33:33.844Z,15.18
2019-06-20T13:38:39.942Z,16.62
2019-06-20T13:43:45.776Z,17.77
2019-06-20T13:48:50.896Z,20.92
2019-06-20T13:53:56.255Z,19.15
2019-06-20T13:59:01.347Z,22.67
2019-06-20T14:04:06.940Z,25.90
2019-06-20T14:09:12.099Z,23.98
2019-06-20T14:14:18.739Z,23.97
2019-06-20T14:19:23.840Z,18.37
2019-06-20T14:24:29.006Z,18.42
2019-06-20T14:29:34.602Z,16.40
2019-06-20T14:34:39.853Z,16.00
2019-06-20T14:39:45.370Z,17.32
2019-06-20T14:44:52.447Z,19.67
2019-06-20T14:49:57.744Z,18.20
2019-06-20T14:55:02.911Z,21.75
2019-06-20T15:00:09.028Z,17.98
2019-06-20T15:05:15.740Z,18.30
2019-06-20T15:10:26.091Z,18.35
2019-06-20T15:15:31.738Z,20.27
2019-06-20T15:20:36.837Z,21.48
2019-06-20T15:25:42.370Z,18.50
2019-06-20T15:30:48.864Z,16.05
2019-06-20T15:35:56.963Z,16.73
2019-06-20T15:41:02.211Z,16.17
2019-06-20T15:46:08.073Z,16.67
2019-06-20T15:51:13.357Z,15.72
2019-06-20T15:56:18.614Z,17.35
2019-06-20T16:01:23.823Z,17.27
2019-06-20T16:06:28.969Z,15.40
2019-06-20T16:11:34.085Z,16.37
2019-06-20T16:16:39.321Z,13.72
2019-06-20T16:21:45.556Z,17.45
2019-06-20T16:26:50.813Z,17.13
2019-06-20T16:37:08.978Z,17.27
2019-06-20T16:42:01.744Z,18.57
2019-06-20T16:47:07.654Z,16.87
2019-06-20T16:52:12.740Z,16.97
2019-06-20T16:57:17.975Z,15.75
2019-06-20T17:02:23.053Z,15.33
2019-06-20T17:07:28.203Z,15.00
2019-06-20T17:12:33.361Z,15.37
2019-06-20T17:17:38.475Z,14.60
2019-06-20T17:22:44.649Z,15.20
2019-06-20T17:27:49.791Z,15.28
2019-06-20T17:32:54.907Z,14.40
2019-06-20T17:38:00.019Z,14.30
2019-06-20T17:43:05.185Z,16.82
2019-06-20T17:48:10.290Z,16.15
2019-06-20T17:53:15.368Z,15.60
2019-06-20T17:58:20.474Z,14.90
2019-06-20T18:03:25.683Z,14.67
2019-06-20T18:08:30.769Z,13.97
2019-06-20T18:13:35.840Z,14.30
2019-06-20T18:18:40.942Z,15.15
2019-06-20T18:23:46.074Z,15.80
2019-06-20T18:28:51.491Z,16.52
2019-06-20T18:33:56.629Z,16.50
2019-06-20T18:39:01.768Z,14.38
2019-06-20T18:44:09.003Z,14.87
2019-06-20T18:49:14.107Z,15.58
2019-06-20T18:54:20.064Z,15.60
2019-06-20T18:59:25.741Z,15.53
2019-06-20T19:04:45.371Z,15.10
2019-06-20T19:09:38.006Z,15.55
2019-06-20T19:14:43.140Z,15.17
2019-06-20T19:19:48.470Z,13.40
2019-06-20T19:24:53.631Z,13.45
2019-06-20T19:29:59.101Z,13.90
2019-06-20T19:35:04.499Z,13.70
2019-06-20T19:40:10.238Z,15.65
2019-06-20T19:45:15.688Z,15.48
2019-06-20T19:50:21.882Z,17.32
2019-06-20T19:55:27.376Z,15.55
2019-06-20T20:00:32.835Z,13.83
2019-06-20T20:05:37.906Z,14.98
2019-06-20T20:10:47.336Z,16.48
2019-06-20T20:15:52.449Z,16.48
2019-06-20T20:20:57.629Z,14.30
2019-06-20T20:26:02.820Z,16.40
2019-06-20T20:31:07.913Z,16.93
2019-06-20T20:36:24.374Z,16.20
2019-06-20T20:41:19.808Z,18.10
2019-06-20T20:46:24.933Z,20.52
2019-06-20T20:51:30.167Z,17.45
2019-06-20T20:56:35.644Z,17.20
2019-06-20T21:01:40.736Z,18.75
2019-06-20T21:06:45.796Z,18.50
2019-06-20T21:11:51.033Z,20.02
2019-06-20T21:16:56.421Z,17.95
2019-06-20T21:22:01.474Z,17.07
2019-06-20T21:27:06.588Z,16.62
2019-06-20T21:32:11.778Z,14.70
2019-06-20T21:37:17.209Z,15.75
2019-06-20T21:42:22.363Z,16.10
2019-06-20T21:47:27.584Z,13.58
2019-06-20T21:52:33.129Z,16.35
2019-06-20T21:57:39.828Z,18.12
2019-06-20T22:02:44.994Z,18.05
2019-06-20T22:07:50.278Z,19.82
2019-06-20T22:12:55.407Z,19.90
2019-06-20T22:18:00.446Z,18.65
2019-06-20T22:23:06.218Z,19.12
2019-06-20T22:28:11.324Z,17.67
2019-06-20T22:33:16.426Z,21.48
2019-06-20T22:38:21.471Z,18.90
2019-06-20T22:43:26.588Z,18.00
2019-06-20T22:48:31.739Z,16.93
2019-06-20T22:53:36.896Z,18.80
2019-06-20T22:58:42.000Z,18.55
2019-06-20T23:03:47.221Z,18.40
2019-06-20T23:08:52.262Z,14.83
2019-06-20T23:13:57.415Z,16.70
2019-06-20T23:19:02.491Z,16.20
2019-06-20T23:24:07.700Z,17.98
2019-06-20T23:29:25.137Z,19.40
2019-06-20T23:34:30.238Z,22.70
2019-06-20T23:39:35.355Z,17.77
2019-06-20T23:44:40.462Z,16.87
2019-06-20T23:49:45.511Z,15.60
2019-06-20T23:54:50.547Z,22.15
2019-06-20T23:59:55.648Z,22.95
